createdAt,value
2019-03-12T00:00:47.452Z,1013.99
2019-03-12T00:01:47.468Z,1014.05
2019-03-12T00:02:47.467Z,1013.97
2019-03-12T00:03:47.478Z,1013.94
2019-03-12T00:04:47.455Z,1013.99
2019-03-12T00:05:47.444Z,1013.99
2019-03-12T00:06:47.455Z,1013.98
2019-03-12T00:07:47.447Z,1014.05
2019-03-12T00:08:47.465Z,1013.99
2019-03-12T00:09:47.418Z,1013.96
2019-03-12T00:10:47.477Z,1014.04
2019-03-12T00:11:47.462Z,1013.98
2019-03-12T00:12:47.448Z,1013.99
2019-03-12T00:13:47.485Z,1014.14
2019-03-12T00:14:47.465Z,1014.04
2019-03-12T00:15:47.435Z,1014.03
2019-03-12T00:16:47.495Z,1014.08
2019-03-12T00:17:47.457Z,1014.08
2019-03-12T00:18:47.460Z,1013.99
2019-03-12T00:19:47.458Z,1014.05
2019-03-12T00:20:47.483Z,1013.99
2019-03-12T00:21:47.458Z,1014.09
2019-03-12T00:22:47.481Z,1014.11
2019-03-12T00:23:47.451Z,1014.10
2019-03-12T00:24:47.484Z,1014.11
2019-03-12T00:25:47.456Z,1014.19
2019-03-12T00:26:47.471Z,1014.11
2019-03-12T00:27:47.487Z,1014.07
2019-03-12T00:28:47.485Z,1014.10
2019-03-12T00:29:47.455Z,1014.07
2019-03-12T00:30:47.478Z,1014.11
2019-03-12T00:31:47.472Z,1014.10
2019-03-12T00:32:47.475Z,1014.11
2019-03-12T00:33:47.490Z,1014.08
2019-03-12T00:34:47.488Z,1014.18
2019-03-12T00:35:47.461Z,1014.10
2019-03-12T00:36:47.510Z,1014.13
2019-03-12T00:37:47.473Z,1014.12
2019-03-12T00:38:47.472Z,1014.11
2019-03-12T00:39:47.481Z,1014.16
2019-03-12T00:40:47.494Z,1014.11
2019-03-12T00:41:47.500Z,1014.13
2019-03-12T00:42:47.513Z,1014.11
2019-03-12T00:43:47.506Z,1014.19
2019-03-12T00:44:47.496Z,1014.11
2019-03-12T00:45:47.494Z,1014.08
2019-03-12T00:46:47.493Z,1014.19
2019-03-12T00:47:47.530Z,1014.12
2019-03-12T00:48:47.495Z,1014.16
2019-03-12T00:49:47.505Z,1014.19
2019-03-12T00:50:47.452Z,1014.21
2019-03-12T00:51:47.532Z,1014.21
2019-03-12T00:52:47.515Z,1014.16
2019-03-12T00:53:47.526Z,1014.15
2019-03-12T00:54:47.494Z,1014.22
2019-03-12T00:55:47.490Z,1014.12
2019-03-12T00:56:47.508Z,1014.20
2019-03-12T00:57:47.496Z,1014.22
2019-03-12T00:58:47.506Z,1014.13
2019-03-12T00:59:47.505Z,1014.16
2019-03-12T01:00:47.524Z,1014.15
2019-03-12T01:01:47.534Z,1014.18
2019-03-12T01:02:47.504Z,1014.20
2019-03-12T01:03:47.501Z,1014.29
2019-03-12T01:04:47.518Z,1014.26
2019-03-12T01:05:47.515Z,1014.16
2019-03-12T01:06:47.576Z,1014.19
2019-03-12T01:07:47.533Z,1014.22
2019-03-12T01:08:47.527Z,1014.23
2019-03-12T01:09:47.532Z,1014.22
2019-03-12T01:10:47.529Z,1014.23
2019-03-12T01:11:47.554Z,1014.25
2019-03-12T01:12:47.519Z,1014.19
2019-03-12T01:13:47.535Z,1014.09
2019-03-12T01:14:47.493Z,1014.18
2019-03-12T01:15:47.523Z,1014.24
2019-03-12T01:16:47.559Z,1014.21
2019-03-12T01:17:47.540Z,1014.12
2019-03-12T01:18:47.519Z,1014.18
2019-03-12T01:19:47.548Z,1014.16
2019-03-12T01:20:47.521Z,1014.18
2019-03-12T01:21:47.562Z,1014.20
2019-03-12T01:22:47.557Z,1014.20
2019-03-12T01:23:47.540Z,1014.22
2019-03-12T01:24:47.555Z,1014.22
2019-03-12T01:25:47.555Z,1014.15
2019-03-12T01:26:47.589Z,1014.16
2019-03-12T01:27:47.531Z,1014.10
2019-03-12T01:28:47.548Z,1014.13
2019-03-12T01:29:47.586Z,1014.22
2019-03-12T01:30:47.583Z,1014.29
2019-03-12T01:31:47.584Z,1014.19
2019-03-12T01:32:47.544Z,1014.27
2019-03-12T01:33:47.558Z,1014.22
2019-03-12T01:34:47.561Z,1014.21
2019-03-12T01:35:47.536Z,1014.20
2019-03-12T01:36:47.610Z,1014.17
2019-03-12T01:37:47.554Z,1014.21
2019-03-12T01:38:47.593Z,1014.22
2019-03-12T01:39:47.621Z,1014.20
2019-03-12T01:40:47.564Z,1014.22
2019-03-12T01:41:47.565Z,1014.26
2019-03-12T01:42:47.566Z,1014.28
2019-03-12T01:43:47.555Z,1014.23
2019-03-12T01:44:47.572Z,1014.27
2019-03-12T01:45:47.608Z,1014.28
2019-03-12T01:46:47.581Z,1014.27
2019-03-12T01:47:47.586Z,1014.22
2019-03-12T01:48:47.552Z,1014.19
2019-03-12T01:49:47.575Z,1014.24
2019-03-12T01:50:47.553Z,1014.20
2019-03-12T01:51:47.563Z,1014.21
2019-03-12T01:52:47.594Z,1014.22
2019-03-12T01:53:47.565Z,1014.14
2019-03-12T01:54:47.616Z,1014.22
2019-03-12T01:55:47.594Z,1014.19
2019-03-12T01:56:47.563Z,1014.20
2019-03-12T01:57:47.627Z,1014.20
2019-03-12T01:58:47.564Z,1014.22
2019-03-12T01:59:47.612Z,1014.14
2019-03-12T02:00:47.586Z,1014.18
2019-03-12T02:01:47.618Z,1014.17
2019-03-12T02:02:47.587Z,1014.13
2019-03-12T02:03:47.594Z,1014.11
2019-03-12T02:04:47.574Z,1014.07
2019-03-12T02:05:47.620Z,1014.11
2019-03-12T02:06:47.611Z,1014.17
2019-03-12T02:07:47.617Z,1014.09
2019-03-12T02:08:47.595Z,1014.14
2019-03-12T02:09:47.592Z,1014.20
2019-03-12T02:10:47.567Z,1014.15
2019-03-12T02:11:47.627Z,1014.21
2019-03-12T02:12:47.625Z,1014.13
2019-03-12T02:13:47.586Z,1014.17
2019-03-12T02:14:47.610Z,1014.09
2019-03-12T02:15:47.595Z,1014.16
2019-03-12T02:16:47.629Z,1014.14
2019-03-12T02:17:47.621Z,1014.12
2019-03-12T02:18:47.598Z,1014.06
2019-03-12T02:19:47.609Z,1014.06
2019-03-12T02:20:47.607Z,1014.04
2019-03-12T02:21:47.599Z,1014.05
2019-03-12T02:22:47.663Z,1014.05
2019-03-12T02:23:47.608Z,1013.98
2019-03-12T02:24:52.688Z,1013.94
2019-03-12T02:25:47.637Z,1013.90
2019-03-12T02:26:47.632Z,1013.96
2019-03-12T02:27:47.645Z,1013.91
2019-03-12T02:28:47.590Z,1013.87
2019-03-12T02:29:47.636Z,1013.94
2019-03-12T02:30:47.647Z,1013.86
2019-03-12T02:31:47.664Z,1013.85
2019-03-12T02:32:47.652Z,1013.90
2019-03-12T02:33:47.626Z,1013.84
2019-03-12T02:34:47.649Z,1013.86
2019-03-12T02:35:47.641Z,1013.81
2019-03-12T02:36:47.633Z,1013.80
2019-03-12T02:37:47.616Z,1013.89
2019-03-12T02:38:47.629Z,1013.81
2019-03-12T02:39:47.692Z,1013.89
2019-03-12T02:40:47.653Z,1013.86
2019-03-12T02:41:47.633Z,1013.80
2019-03-12T02:42:47.652Z,1013.84
2019-03-12T02:43:47.657Z,1013.75
2019-03-12T02:44:47.643Z,1013.77
2019-03-12T02:45:47.646Z,1013.73
2019-03-12T02:46:47.637Z,1013.80
2019-03-12T02:47:47.639Z,1013.77
2019-03-12T02:48:47.655Z,1013.72
2019-03-12T02:49:47.631Z,1013.76
2019-03-12T02:50:47.681Z,1013.85
2019-03-12T02:51:47.672Z,1013.79
2019-03-12T02:52:47.654Z,1013.79
2019-03-12T02:53:47.666Z,1013.81
2019-03-12T02:54:47.618Z,1013.76
2019-03-12T02:55:47.648Z,1013.79
2019-03-12T02:56:47.638Z,1013.79
2019-03-12T02:57:47.653Z,1013.76
2019-03-12T02:58:47.704Z,1013.75
2019-03-12T02:59:47.652Z,1013.72
2019-03-12T03:00:47.665Z,1013.71
2019-03-12T03:01:47.699Z,1013.71
2019-03-12T03:02:47.705Z,1013.78
2019-03-12T03:03:47.720Z,1013.71
2019-03-12T03:04:47.665Z,1013.71
2019-03-12T03:05:47.672Z,1013.81
2019-03-12T03:06:47.719Z,1013.73
2019-03-12T03:07:47.672Z,1013.81
2019-03-12T03:08:47.697Z,1013.70
2019-03-12T03:09:47.673Z,1013.78
2019-03-12T03:10:47.824Z,1013.80
2019-03-12T03:11:50.918Z,1013.79
2019-03-12T03:12:47.840Z,1013.85
2019-03-12T03:13:47.713Z,1013.83
2019-03-12T03:14:47.703Z,1013.82
2019-03-12T03:15:47.689Z,1013.77
2019-03-12T03:16:47.700Z,1013.85
2019-03-12T03:17:47.703Z,1013.92
2019-03-12T03:18:47.706Z,1013.83
2019-03-12T03:19:47.690Z,1013.91
2019-03-12T03:20:47.680Z,1013.79
2019-03-12T03:21:47.679Z,1013.93
2019-03-12T03:22:47.705Z,1013.90
2019-03-12T03:23:47.714Z,1014.00
2019-03-12T03:24:47.669Z,1013.96
2019-03-12T03:25:47.669Z,1013.89
2019-03-12T03:26:47.770Z,1013.91
2019-03-12T03:27:47.721Z,1013.86
2019-03-12T03:28:47.716Z,1013.88
2019-03-12T03:29:47.697Z,1013.94
2019-03-12T03:30:47.729Z,1013.97
2019-03-12T03:31:47.707Z,1013.93
2019-03-12T03:32:47.715Z,1013.93
2019-03-12T03:33:47.718Z,1013.90
2019-03-12T03:34:47.731Z,1013.88
2019-03-12T03:35:47.717Z,1013.92
2019-03-12T03:36:47.719Z,1013.94
2019-03-12T03:37:47.742Z,1013.93
2019-03-12T03:38:47.783Z,1013.87
2019-03-12T03:39:47.711Z,1013.83
2019-03-12T03:40:47.720Z,1013.84
2019-03-12T03:41:47.705Z,1013.82
2019-03-12T03:42:47.723Z,1013.91
2019-03-12T03:43:47.747Z,1013.87
2019-03-12T03:44:47.727Z,1013.80
2019-03-12T03:45:47.736Z,1013.76
2019-03-12T03:46:47.701Z,1013.87
2019-03-12T03:47:47.757Z,1013.89
2019-03-12T03:48:47.746Z,1013.81
2019-03-12T03:49:47.735Z,1013.88
2019-03-12T03:50:47.762Z,1013.91
2019-03-12T03:51:47.736Z,1013.90
2019-03-12T03:52:47.751Z,1013.91
2019-03-12T03:53:47.707Z,1013.86
2019-03-12T03:54:47.743Z,1013.89
2019-03-12T03:55:47.738Z,1013.87
2019-03-12T03:56:47.751Z,1013.83
2019-03-12T03:57:47.770Z,1013.84
2019-03-12T03:58:47.723Z,1013.84
2019-03-12T03:59:47.765Z,1013.86
2019-03-12T04:00:47.756Z,1013.77
2019-03-12T04:01:47.720Z,1013.92
2019-03-12T04:02:47.759Z,1013.82
2019-03-12T04:03:47.763Z,1013.85
2019-03-12T04:04:47.746Z,1013.84
2019-03-12T04:05:47.747Z,1013.85
2019-03-12T04:06:47.746Z,1013.81
2019-03-12T04:07:47.741Z,1013.81
2019-03-12T04:08:47.740Z,1013.80
2019-03-12T04:09:47.789Z,1013.82
2019-03-12T04:10:47.763Z,1013.92
2019-03-12T04:11:47.779Z,1013.89
2019-03-12T04:12:47.764Z,1013.90
2019-03-12T04:13:47.780Z,1013.91
2019-03-12T04:14:47.800Z,1013.87
2019-03-12T04:15:47.764Z,1013.82
2019-03-12T04:16:47.752Z,1013.82
2019-03-12T04:17:47.767Z,1013.86
2019-03-12T04:18:47.778Z,1013.86
2019-03-12T04:19:47.785Z,1013.82
2019-03-12T04:20:47.792Z,1013.85
2019-03-12T04:21:47.759Z,1013.86
2019-03-12T04:22:47.779Z,1013.80
2019-03-12T04:23:47.776Z,1013.80
2019-03-12T04:24:47.784Z,1013.80
2019-03-12T04:25:47.770Z,1013.74
2019-03-12T04:26:47.771Z,1013.74
2019-03-12T04:27:47.757Z,1013.69
2019-03-12T04:28:47.760Z,1013.65
2019-03-12T04:29:47.799Z,1013.69
2019-03-12T04:30:47.788Z,1013.60
2019-03-12T04:31:47.817Z,1013.67
2019-03-12T04:32:47.769Z,1013.64
2019-03-12T04:33:47.819Z,1013.65
2019-03-12T04:34:47.816Z,1013.62
2019-03-12T04:35:47.765Z,1013.70
2019-03-12T04:36:47.857Z,1013.68
2019-03-12T04:37:47.798Z,1013.70
2019-03-12T04:38:47.771Z,1013.64
2019-03-12T04:39:47.813Z,1013.72
2019-03-12T04:40:47.775Z,1013.63
2019-03-12T04:41:47.812Z,1013.64
2019-03-12T04:42:47.798Z,1013.62
2019-03-12T04:43:47.795Z,1013.61
2019-03-12T04:44:48.277Z,1013.59
2019-03-12T04:45:47.806Z,1013.60
2019-03-12T04:46:47.798Z,1013.59
2019-03-12T04:47:47.828Z,1013.63
2019-03-12T04:48:47.827Z,1013.55
2019-03-12T04:49:47.795Z,1013.55
2019-03-12T04:50:47.792Z,1013.57
2019-03-12T04:51:47.790Z,1013.51
2019-03-12T04:52:47.794Z,1013.60
2019-03-12T04:53:47.812Z,1013.55
2019-03-12T04:54:47.813Z,1013.66
2019-03-12T04:55:47.831Z,1013.57
2019-03-12T04:56:47.804Z,1013.62
2019-03-12T04:57:47.855Z,1013.58
2019-03-12T04:58:47.806Z,1013.59
2019-03-12T04:59:47.805Z,1013.55
2019-03-12T05:00:47.827Z,1013.61
2019-03-12T05:01:47.841Z,1013.52
2019-03-12T05:02:47.825Z,1013.56
2019-03-12T05:03:47.787Z,1013.53
2019-03-12T05:04:47.864Z,1013.55
2019-03-12T05:05:47.847Z,1013.57
2019-03-12T05:06:47.821Z,1013.58
2019-03-12T05:07:47.835Z,1013.52
2019-03-12T05:08:47.806Z,1013.61
2019-03-12T05:09:47.829Z,1013.59
2019-03-12T05:10:47.853Z,1013.62
2019-03-12T05:11:47.813Z,1013.56
2019-03-12T05:12:47.917Z,1013.57
2019-03-12T05:13:47.828Z,1013.54
2019-03-12T05:14:47.822Z,1013.60
2019-03-12T05:15:47.876Z,1013.54
2019-03-12T05:16:47.810Z,1013.64
2019-03-12T05:17:47.823Z,1013.52
2019-03-12T05:18:47.926Z,1013.68
2019-03-12T05:19:47.867Z,1013.66
2019-03-12T05:20:47.878Z,1013.60
2019-03-12T05:21:47.849Z,1013.66
2019-03-12T05:22:47.832Z,1013.57
2019-03-12T05:23:47.818Z,1013.62
2019-03-12T05:24:47.865Z,1013.60
2019-03-12T05:25:47.865Z,1013.65
2019-03-12T05:26:47.842Z,1013.59
2019-03-12T05:27:47.849Z,1013.52
2019-03-12T05:28:47.895Z,1013.56
2019-03-12T05:29:47.856Z,1013.56
2019-03-12T05:30:47.851Z,1013.52
2019-03-12T05:31:47.835Z,1013.51
2019-03-12T05:32:47.879Z,1013.49
2019-03-12T05:33:47.862Z,1013.47
2019-03-12T05:34:47.861Z,1013.41
2019-03-12T05:35:47.857Z,1013.45
2019-03-12T05:36:47.842Z,1013.39
2019-03-12T05:37:47.864Z,1013.41
2019-03-12T05:38:47.857Z,1013.30
2019-03-12T05:39:47.857Z,1013.34
2019-03-12T05:40:47.870Z,1013.34
2019-03-12T05:41:47.833Z,1013.30
2019-03-12T05:42:47.865Z,1013.33
2019-03-12T05:43:47.885Z,1013.29
2019-03-12T05:44:47.867Z,1013.38
2019-03-12T05:45:48.155Z,1013.36
2019-03-12T05:46:47.864Z,1013.25
2019-03-12T05:47:47.864Z,1013.26
2019-03-12T05:48:47.879Z,1013.25
2019-03-12T05:49:47.874Z,1013.24
2019-03-12T05:50:47.892Z,1013.27
2019-03-12T05:51:47.875Z,1013.30
2019-03-12T05:52:49.311Z,1013.23
2019-03-12T05:53:47.866Z,1013.23
2019-03-12T05:54:47.861Z,1013.25
2019-03-12T05:55:47.894Z,1013.22
2019-03-12T05:56:47.910Z,1013.07
2019-03-12T05:57:47.897Z,1013.10
2019-03-12T05:58:47.939Z,1013.03
2019-03-12T05:59:47.870Z,1013.06
2019-03-12T06:00:47.876Z,1013.01
2019-03-12T06:01:47.903Z,1012.93
2019-03-12T06:02:47.884Z,1013.02
2019-03-12T06:03:47.925Z,1012.98
2019-03-12T06:04:47.889Z,1012.94
2019-03-12T06:05:47.928Z,1013.05
2019-03-12T06:06:47.891Z,1013.03
2019-03-12T06:07:47.917Z,1013.00
2019-03-12T06:08:47.898Z,1012.98
2019-03-12T06:09:47.913Z,1012.96
2019-03-12T06:10:47.909Z,1012.97
2019-03-12T06:11:47.907Z,1013.00
2019-03-12T06:12:47.893Z,1012.99
2019-03-12T06:13:47.901Z,1012.93
2019-03-12T06:14:47.965Z,1012.96
2019-03-12T06:15:47.925Z,1012.87
2019-03-12T06:16:47.914Z,1012.92
2019-03-12T06:17:47.896Z,1012.92
2019-03-12T06:18:47.894Z,1012.94
2019-03-12T06:19:47.909Z,1012.92
2019-03-12T06:20:47.933Z,1012.91
2019-03-12T06:21:47.950Z,1012.89
2019-03-12T06:22:47.898Z,1012.90
2019-03-12T06:23:47.935Z,1012.79
2019-03-12T06:24:47.920Z,1012.86
2019-03-12T06:25:47.910Z,1012.88
2019-03-12T06:26:47.922Z,1012.86
2019-03-12T06:27:47.905Z,1012.92
2019-03-12T06:28:47.920Z,1012.85
2019-03-12T06:29:47.918Z,1012.82
2019-03-12T06:30:47.969Z,1012.88
2019-03-12T06:31:47.968Z,1012.91
2019-03-12T06:32:48.054Z,1012.83
2019-03-12T06:33:47.918Z,1012.81
2019-03-12T06:34:47.924Z,1012.81
2019-03-12T06:35:47.918Z,1012.89
2019-03-12T06:36:47.951Z,1012.86
2019-03-12T06:37:47.967Z,1012.88
2019-03-12T06:38:47.930Z,1012.88
2019-03-12T06:39:47.960Z,1012.93
2019-03-12T06:40:47.951Z,1012.87
2019-03-12T06:41:47.972Z,1012.90
2019-03-12T06:42:48.005Z,1012.80
2019-03-12T06:43:47.928Z,1012.84
2019-03-12T06:44:47.943Z,1012.88
2019-03-12T06:45:47.931Z,1012.86
2019-03-12T06:46:47.925Z,1012.80
2019-03-12T06:47:47.963Z,1012.78
2019-03-12T06:48:47.937Z,1012.85
2019-03-12T06:49:47.937Z,1012.79
2019-03-12T06:50:47.978Z,1012.78
2019-03-12T06:51:47.943Z,1012.95
2019-03-12T06:52:47.948Z,1012.87
2019-03-12T06:53:47.948Z,1012.79
2019-03-12T06:54:47.947Z,1012.88
2019-03-12T06:55:47.944Z,1012.91
2019-03-12T06:56:47.952Z,1012.85
2019-03-12T06:57:47.983Z,1012.83
2019-03-12T06:58:47.938Z,1012.82
2019-03-12T06:59:47.943Z,1012.84
2019-03-12T07:00:47.947Z,1012.73
2019-03-12T07:01:48.003Z,1012.74
2019-03-12T07:02:48.038Z,1012.67
2019-03-12T07:03:47.962Z,1012.70
2019-03-12T07:04:47.968Z,1012.72
2019-03-12T07:05:47.958Z,1012.74
2019-03-12T07:06:47.982Z,1012.68
2019-03-12T07:07:47.983Z,1012.64
2019-03-12T07:08:47.954Z,1012.62
2019-03-12T07:09:47.976Z,1012.65
2019-03-12T07:10:47.986Z,1012.66
2019-03-12T07:11:47.956Z,1012.54
2019-03-12T07:12:47.967Z,1012.58
2019-03-12T07:13:47.994Z,1012.65
2019-03-12T07:14:47.982Z,1012.59
2019-03-12T07:15:47.974Z,1012.68
2019-03-12T07:16:47.946Z,1012.58
2019-03-12T07:17:48.013Z,1012.52
2019-03-12T07:18:47.976Z,1012.56
2019-03-12T07:19:48.005Z,1012.51
2019-03-12T07:20:47.999Z,1012.38
2019-03-12T07:21:48.028Z,1012.50
2019-03-12T07:22:48.050Z,1012.64
2019-03-12T07:23:48.061Z,1012.47
2019-03-12T07:24:48.049Z,1012.54
2019-03-12T07:25:50.738Z,1012.50
2019-03-12T07:26:48.133Z,1012.51
2019-03-12T07:27:48.112Z,1012.53
2019-03-12T07:28:50.594Z,1012.61
2019-03-12T07:29:48.132Z,1012.58
2019-03-12T07:30:48.082Z,1012.44
2019-03-12T07:31:48.091Z,1012.44
2019-03-12T07:32:48.142Z,1012.45
2019-03-12T07:33:48.079Z,1012.44
2019-03-12T07:34:48.105Z,1012.42
2019-03-12T07:35:48.096Z,1012.35
2019-03-12T07:36:48.070Z,1012.38
2019-03-12T07:37:48.083Z,1012.32
2019-03-12T07:38:48.117Z,1012.29
2019-03-12T07:39:48.130Z,1012.34
2019-03-12T07:40:48.139Z,1012.25
2019-03-12T07:41:48.144Z,1012.30
2019-03-12T07:42:48.160Z,1012.23
2019-03-12T07:43:48.176Z,1012.26
2019-03-12T07:44:48.209Z,1012.23
2019-03-12T07:45:48.151Z,1012.30
2019-03-12T07:46:48.170Z,1012.22
2019-03-12T07:47:48.196Z,1012.24
2019-03-12T07:48:48.259Z,1012.19
2019-03-12T07:49:48.251Z,1012.23
2019-03-12T07:50:48.240Z,1012.13
2019-03-12T07:51:48.246Z,1012.11
2019-03-12T07:52:48.272Z,1012.03
2019-03-12T07:53:58.998Z,1012.12
2019-03-12T07:54:48.332Z,1012.05
2019-03-12T07:55:48.256Z,1012.13
2019-03-12T07:56:48.336Z,1012.05
2019-03-12T07:57:48.291Z,1012.00
2019-03-12T07:58:48.331Z,1011.99
2019-03-12T07:59:48.258Z,1011.96
2019-03-12T08:00:48.263Z,1011.94
2019-03-12T08:01:48.273Z,1011.92
2019-03-12T08:02:48.274Z,1011.90
2019-03-12T08:03:48.293Z,1011.90
2019-03-12T08:04:48.296Z,1011.90
2019-03-12T08:05:48.281Z,1011.78
2019-03-12T08:06:48.279Z,1011.81
2019-03-12T08:07:48.308Z,1011.76
2019-03-12T08:08:48.275Z,1011.76
2019-03-12T08:09:48.315Z,1011.82
2019-03-12T08:10:48.299Z,1011.75
2019-03-12T08:11:48.306Z,1011.77
2019-03-12T08:12:48.271Z,1011.81
2019-03-12T08:13:48.273Z,1011.71
2019-03-12T08:14:48.369Z,1011.68
2019-03-12T08:15:50.432Z,1011.74
2019-03-12T08:16:48.307Z,1011.71
2019-03-12T08:17:48.314Z,1011.72
2019-03-12T08:18:48.295Z,1011.65
2019-03-12T08:19:48.314Z,1011.62
2019-03-12T08:20:48.305Z,1011.62
2019-03-12T08:21:49.739Z,1011.53
2019-03-12T08:22:48.317Z,1011.55
2019-03-12T08:23:48.320Z,1011.61
2019-03-12T08:24:48.324Z,1011.50
2019-03-12T08:25:48.299Z,1011.52
2019-03-12T08:26:48.307Z,1011.46
2019-03-12T08:27:48.338Z,1011.43
2019-03-12T08:28:48.333Z,1011.45
2019-03-12T08:29:48.343Z,1011.49
2019-03-12T08:30:48.290Z,1011.44
2019-03-12T08:31:48.300Z,1011.37
2019-03-12T08:32:48.329Z,1011.35
2019-03-12T08:33:50.982Z,1011.40
2019-03-12T08:34:48.361Z,1011.35
2019-03-12T08:35:48.316Z,1011.45
2019-03-12T08:36:48.351Z,1011.42
2019-03-12T08:37:48.356Z,1011.35
2019-03-12T08:38:48.352Z,1011.33
2019-03-12T08:39:48.457Z,1011.36
2019-03-12T08:40:52.756Z,1011.27
2019-03-12T08:41:48.408Z,1011.23
2019-03-12T08:42:54.465Z,1011.22
2019-03-12T08:43:48.402Z,1011.21
2019-03-12T08:44:48.478Z,1011.17
2019-03-12T08:45:48.915Z,1011.05
2019-03-12T08:46:48.390Z,1011.14
2019-03-12T08:47:48.395Z,1011.09
2019-03-12T08:48:48.401Z,1011.03
2019-03-12T08:49:48.445Z,1011.01
2019-03-12T08:50:48.430Z,1011.03
2019-03-12T08:51:48.395Z,1010.99
2019-03-12T08:52:48.442Z,1011.06
2019-03-12T08:53:48.429Z,1010.99
2019-03-12T08:54:54.175Z,1010.97
2019-03-12T08:55:48.412Z,1010.93
2019-03-12T08:56:48.415Z,1011.00
2019-03-12T08:57:48.439Z,1010.96
2019-03-12T08:58:48.427Z,1010.93
2019-03-12T08:59:48.434Z,1010.87
2019-03-12T09:00:48.408Z,1010.81
2019-03-12T09:01:48.434Z,1010.86
2019-03-12T09:02:48.454Z,1010.92
2019-03-12T09:03:48.424Z,1010.79
2019-03-12T09:04:48.457Z,1010.81
2019-03-12T09:05:48.416Z,1010.74
2019-03-12T09:06:48.467Z,1010.77
2019-03-12T09:07:48.421Z,1010.73
2019-03-12T09:08:48.433Z,1010.70
2019-03-12T09:09:48.455Z,1010.62
2019-03-12T09:10:48.460Z,1010.63
2019-03-12T09:11:48.415Z,1010.61
2019-03-12T09:12:48.456Z,1010.54
2019-03-12T09:13:48.459Z,1010.59
2019-03-12T09:14:48.473Z,1010.59
2019-03-12T09:15:48.439Z,1010.55
2019-03-12T09:16:48.442Z,1010.56
2019-03-12T09:17:48.449Z,1010.50
2019-03-12T09:18:48.455Z,1010.53
2019-03-12T09:19:48.470Z,1010.42
2019-03-12T09:20:48.457Z,1010.45
2019-03-12T09:21:48.457Z,1010.40
2019-03-12T09:22:48.460Z,1010.42
2019-03-12T09:23:48.470Z,1010.40
2019-03-12T09:24:48.484Z,1010.29
2019-03-12T09:25:48.538Z,1010.34
2019-03-12T09:26:48.457Z,1010.23
2019-03-12T09:27:48.449Z,1010.34
2019-03-12T09:28:48.474Z,1010.27
2019-03-12T09:29:48.505Z,1010.20
2019-03-12T09:30:48.532Z,1010.21
2019-03-12T09:31:48.499Z,1010.17
2019-03-12T09:32:48.525Z,1010.21
2019-03-12T09:33:48.469Z,1010.24
2019-03-12T09:34:48.480Z,1010.14
2019-03-12T09:35:48.479Z,1010.15
2019-03-12T09:36:48.552Z,1010.08
2019-03-12T09:37:48.488Z,1010.00
2019-03-12T09:38:48.463Z,1010.04
2019-03-12T09:39:48.469Z,1010.02
2019-03-12T09:40:48.456Z,1010.04
2019-03-12T09:41:48.515Z,1009.98
2019-03-12T09:42:48.520Z,1009.95
2019-03-12T09:43:48.453Z,1009.98
2019-03-12T09:44:48.472Z,1009.94
2019-03-12T09:45:48.486Z,1009.85
2019-03-12T09:46:48.536Z,1009.79
2019-03-12T09:47:48.488Z,1009.78
2019-03-12T09:48:48.480Z,1009.80
2019-03-12T09:49:48.484Z,1009.74
2019-03-12T09:50:48.498Z,1009.71
2019-03-12T09:51:48.531Z,1009.75
2019-03-12T09:52:48.580Z,1009.73
2019-03-12T09:53:48.512Z,1009.77
2019-03-12T09:54:48.519Z,1009.72
2019-03-12T09:55:48.496Z,1009.76
2019-03-12T09:56:48.536Z,1009.72
2019-03-12T09:57:48.581Z,1009.65
2019-03-12T09:58:48.502Z,1009.66
2019-03-12T09:59:48.540Z,1009.73
2019-03-12T10:00:48.532Z,1009.65
2019-03-12T10:01:48.507Z,1009.68
2019-03-12T10:02:48.573Z,1009.61
2019-03-12T10:03:48.472Z,1009.60
2019-03-12T10:04:48.498Z,1009.59
2019-03-12T10:05:48.504Z,1009.53
2019-03-12T10:06:48.558Z,1009.62
2019-03-12T10:07:48.571Z,1009.51
2019-03-12T10:08:48.467Z,1009.53
2019-03-12T10:09:48.550Z,1009.48
2019-03-12T10:10:48.541Z,1009.42
2019-03-12T10:11:48.505Z,1009.39
2019-03-12T10:12:48.614Z,1009.44
2019-03-12T10:13:48.542Z,1009.38
2019-03-12T10:14:48.535Z,1009.36
2019-03-12T10:15:48.502Z,1009.30
2019-03-12T10:16:48.508Z,1009.19
2019-03-12T10:17:48.617Z,1009.28
2019-03-12T10:18:48.517Z,1009.21
2019-03-12T10:19:48.514Z,1009.23
2019-03-12T10:20:48.589Z,1009.28
2019-03-12T10:21:48.543Z,1009.16
2019-03-12T10:22:48.579Z,1009.15
2019-03-12T10:23:48.578Z,1009.15
2019-03-12T10:24:48.536Z,1009.21
2019-03-12T10:25:48.562Z,1009.15
2019-03-12T10:26:48.517Z,1009.08
2019-03-12T10:27:48.557Z,1009.11
2019-03-12T10:28:48.536Z,1009.08
2019-03-12T10:29:48.549Z,1009.07
2019-03-12T10:30:48.539Z,1009.01
2019-03-12T10:31:48.531Z,1009.02
2019-03-12T10:32:48.558Z,1009.03
2019-03-12T10:33:48.594Z,1008.95
2019-03-12T10:34:48.553Z,1008.96
2019-03-12T10:35:48.587Z,1008.91
2019-03-12T10:36:48.538Z,1008.87
2019-03-12T10:37:48.553Z,1008.96
2019-03-12T10:38:48.621Z,1008.85
2019-03-12T10:39:48.535Z,1008.82
2019-03-12T10:40:48.537Z,1008.83
2019-03-12T10:41:48.541Z,1008.85
2019-03-12T10:42:48.544Z,1008.85
2019-03-12T10:43:48.589Z,1008.89
2019-03-12T10:44:48.596Z,1008.79
2019-03-12T10:45:48.561Z,1008.82
2019-03-12T10:46:48.564Z,1008.86
2019-03-12T10:47:48.620Z,1008.75
2019-03-12T10:48:48.593Z,1008.72
2019-03-12T10:49:48.584Z,1008.70
2019-03-12T10:50:48.594Z,1008.67
2019-03-12T10:51:48.579Z,1008.66
2019-03-12T10:52:48.560Z,1008.65
2019-03-12T10:53:48.585Z,1008.71
2019-03-12T10:54:48.611Z,1008.60
2019-03-12T10:55:48.620Z,1008.54
2019-03-12T10:56:48.592Z,1008.55
2019-03-12T10:57:48.595Z,1008.49
2019-03-12T10:58:48.599Z,1008.49
2019-03-12T10:59:48.620Z,1008.48
2019-03-12T11:00:48.659Z,1008.43
2019-03-12T11:01:48.611Z,1008.44
2019-03-12T11:02:48.625Z,1008.49
2019-03-12T11:03:48.637Z,1008.42
2019-03-12T11:04:48.569Z,1008.37
2019-03-12T11:05:48.655Z,1008.40
2019-03-12T11:06:48.660Z,1008.44
2019-03-12T11:07:48.591Z,1008.39
2019-03-12T11:08:48.588Z,1008.36
2019-03-12T11:09:48.652Z,1008.30
2019-03-12T11:10:48.602Z,1008.28
2019-03-12T11:11:48.649Z,1008.30
2019-03-12T11:12:48.628Z,1008.15
2019-03-12T11:13:48.638Z,1008.09
2019-03-12T11:14:48.646Z,1008.17
2019-03-12T11:15:48.650Z,1008.05
2019-03-12T11:16:48.659Z,1008.08
2019-03-12T11:17:50.281Z,1008.08
2019-03-12T11:18:48.702Z,1008.11
2019-03-12T11:19:48.615Z,1008.08
2019-03-12T11:20:48.626Z,1008.04
2019-03-12T11:21:48.631Z,1007.98
2019-03-12T11:22:48.601Z,1008.06
2019-03-12T11:23:48.678Z,1007.97
2019-03-12T11:24:48.668Z,1007.86
2019-03-12T11:25:48.626Z,1007.85
2019-03-12T11:26:48.656Z,1007.81
2019-03-12T11:27:48.610Z,1007.90
2019-03-12T11:28:48.900Z,1007.85
2019-03-12T11:29:48.620Z,1007.79
2019-03-12T11:30:48.672Z,1007.83
2019-03-12T11:31:48.611Z,1007.81
2019-03-12T11:32:48.664Z,1007.74
2019-03-12T11:33:48.672Z,1007.76
2019-03-12T11:34:48.658Z,1007.78
2019-03-12T11:35:48.607Z,1007.84
2019-03-12T11:36:48.796Z,1007.81
2019-03-12T11:37:49.061Z,1007.74
2019-03-12T11:38:48.729Z,1007.76
2019-03-12T11:39:48.660Z,1007.75
2019-03-12T11:40:48.622Z,1007.72
2019-03-12T11:41:48.676Z,1007.69
2019-03-12T11:42:48.727Z,1007.68
2019-03-12T11:43:48.928Z,1007.68
2019-03-12T11:44:48.667Z,1007.62
2019-03-12T11:45:48.693Z,1007.59
2019-03-12T11:46:48.654Z,1007.54
2019-03-12T11:47:48.781Z,1007.55
2019-03-12T11:48:48.690Z,1007.48
2019-03-12T11:49:48.634Z,1007.50
2019-03-12T11:50:48.692Z,1007.47
2019-03-12T11:51:48.665Z,1007.48
2019-03-12T11:52:54.164Z,1007.36
2019-03-12T11:53:48.725Z,1007.40
2019-03-12T11:54:49.184Z,1007.43
2019-03-12T11:55:48.713Z,1007.37
2019-03-12T11:56:48.656Z,1007.34
2019-03-12T11:57:48.806Z,1007.34
2019-03-12T11:58:48.673Z,1007.26
2019-03-12T11:59:48.658Z,1007.23
2019-03-12T12:00:48.745Z,1007.22
2019-03-12T12:01:48.626Z,1007.18
2019-03-12T12:02:59.377Z,1007.15
2019-03-12T12:03:48.707Z,1007.11
2019-03-12T12:04:48.663Z,1007.17
2019-03-12T12:05:48.655Z,1007.02